createdAt,value
2022-11-30T00:02:00.363Z,193.50
2022-11-30T00:04:28.491Z,198.85
2022-11-30T00:06:57.410Z,189.00
2022-11-30T00:09:26.771Z,186.85
2022-11-30T00:11:54.667Z,205.05
2022-11-30T00:14:22.623Z,194.52
2022-11-30T00:16:50.399Z,182.40
2022-11-30T00:19:18.688Z,201.10
2022-11-30T00:21:46.672Z,178.05
2022-11-30T00:24:14.633Z,178.77
2022-11-30T00:26:44.052Z,182.52
2022-11-30T00:29:12.842Z,169.05
2022-11-30T00:31:40.544Z,158.25
2022-11-30T00:34:08.915Z,176.75
2022-11-30T00:36:36.618Z,178.82
2022-11-30T00:39:04.744Z,177.23
2022-11-30T00:41:32.731Z,166.95
2022-11-30T00:44:02.171Z,153.85
2022-11-30T00:46:29.886Z,160.68
2022-11-30T00:48:58.037Z,154.88
2022-11-30T00:51:25.911Z,188.65
2022-11-30T00:53:53.892Z,157.95
2022-11-30T00:56:22.999Z,170.13
2022-11-30T00:58:52.623Z,155.55
2022-11-30T01:01:21.727Z,151.80
2022-11-30T01:03:49.836Z,148.95
2022-11-30T01:06:17.647Z,152.20
2022-11-30T01:08:45.568Z,148.68
2022-11-30T01:11:17.309Z,151.88
2022-11-30T01:13:45.355Z,148.13
2022-11-30T01:16:16.638Z,150.07
2022-11-30T01:18:46.373Z,153.13
2022-11-30T01:21:16.486Z,159.05
2022-11-30T01:23:45.373Z,163.20
2022-11-30T01:26:13.565Z,176.73
2022-11-30T01:28:43.932Z,158.98
2022-11-30T01:31:13.450Z,196.07
2022-11-30T01:33:43.068Z,195.80
2022-11-30T01:36:14.440Z,158.48
2022-11-30T01:38:45.040Z,141.23
2022-11-30T01:41:15.949Z,125.68
2022-11-30T01:43:46.329Z,136.23
2022-11-30T01:46:28.056Z,135.77
2022-11-30T01:49:06.025Z,146.13
2022-11-30T01:51:40.072Z,134.10
2022-11-30T01:54:12.015Z,122.88
2022-11-30T01:56:43.989Z,142.73
2022-11-30T01:59:12.836Z,152.63
2022-11-30T02:01:40.581Z,161.68
2022-11-30T02:04:14.773Z,132.60
2022-11-30T02:06:44.928Z,125.80
2022-11-30T02:09:14.280Z,113.55
2022-11-30T02:11:41.978Z,99.20
2022-11-30T02:14:24.604Z,99.20
2022-11-30T02:17:02.765Z,99.07
2022-11-30T02:20:14.350Z,106.22
2022-11-30T02:23:03.920Z,103.88
2022-11-30T02:25:41.128Z,102.50
2022-11-30T02:28:24.879Z,113.00
2022-11-30T02:30:55.899Z,111.53
2022-11-30T02:33:28.675Z,110.57
2022-11-30T02:35:58.932Z,112.53
2022-11-30T02:38:28.944Z,112.18
2022-11-30T02:40:56.960Z,110.95
2022-11-30T02:43:29.263Z,101.20
2022-11-30T02:46:07.522Z,99.88
2022-11-30T02:48:47.607Z,102.57
2022-11-30T02:51:20.010Z,112.55
2022-11-30T02:56:16.409Z,115.10
2022-11-30T02:58:44.379Z,103.68
2022-11-30T03:01:13.929Z,94.03
2022-11-30T03:03:41.780Z,97.38
2022-11-30T03:06:09.740Z,89.47
2022-11-30T03:08:37.704Z,98.93
2022-11-30T03:11:06.762Z,104.18
2022-11-30T03:13:35.308Z,105.15
2022-11-30T03:16:07.952Z,102.68
2022-11-30T03:21:07.149Z,108.72
2022-11-30T03:23:35.575Z,104.90
2022-11-30T03:26:05.185Z,105.20
2022-11-30T03:28:33.512Z,95.60
2022-11-30T03:31:01.549Z,97.28
2022-11-30T03:33:29.275Z,96.28
2022-11-30T03:36:03.085Z,91.32
2022-11-30T03:38:32.232Z,91.95
2022-11-30T03:41:02.450Z,95.57
2022-11-30T03:43:30.994Z,94.50
2022-11-30T03:45:59.573Z,98.35
2022-11-30T03:48:27.587Z,91.22
2022-11-30T03:50:55.882Z,95.03
2022-11-30T03:53:26.544Z,88.75
2022-11-30T03:55:55.962Z,88.22
2022-11-30T03:58:24.797Z,85.22
2022-11-30T04:01:00.329Z,86.82
2022-11-30T04:03:28.404Z,83.47
2022-11-30T04:05:56.770Z,89.50
2022-11-30T04:08:26.142Z,82.72
2022-11-30T04:10:55.715Z,84.22
2022-11-30T04:13:24.876Z,85.63
2022-11-30T04:15:54.594Z,92.45
2022-11-30T04:18:24.014Z,83.85
2022-11-30T04:20:53.172Z,79.15
2022-11-30T04:23:22.137Z,82.18
2022-11-30T04:25:51.903Z,82.53
2022-11-30T04:28:20.193Z,80.95
2022-11-30T04:30:48.488Z,72.78
2022-11-30T04:33:18.143Z,77.00
2022-11-30T04:35:49.824Z,84.25
2022-11-30T04:38:17.837Z,66.03
2022-11-30T04:40:46.247Z,82.60
2022-11-30T04:43:15.354Z,85.93
2022-11-30T04:45:44.958Z,86.28
2022-11-30T04:48:13.192Z,86.60
2022-11-30T04:50:41.426Z,74.00
2022-11-30T04:53:10.084Z,76.93
2022-11-30T04:55:39.144Z,83.32
2022-11-30T04:58:06.917Z,83.63
2022-11-30T05:00:37.050Z,85.28
2022-11-30T05:03:04.856Z,76.63
2022-11-30T05:05:32.899Z,80.40
2022-11-30T05:08:01.130Z,79.10
2022-11-30T05:10:29.921Z,77.63
2022-11-30T05:12:58.243Z,86.88
2022-11-30T05:15:27.185Z,83.95
2022-11-30T05:17:59.500Z,90.97
2022-11-30T05:20:27.747Z,91.70
2022-11-30T05:22:55.520Z,75.60
2022-11-30T05:25:23.594Z,89.03
2022-11-30T05:27:51.505Z,89.57
2022-11-30T05:30:19.845Z,88.63
2022-11-30T05:32:47.577Z,93.90
2022-11-30T05:35:17.363Z,94.03
2022-11-30T05:37:45.088Z,89.47
2022-11-30T05:40:14.075Z,89.07
2022-11-30T05:42:42.136Z,86.97
2022-11-30T05:45:11.339Z,98.70
2022-11-30T05:47:39.060Z,90.00
2022-11-30T05:50:08.635Z,86.85
2022-11-30T05:52:37.671Z,99.60
2022-11-30T05:55:06.399Z,87.53
2022-11-30T05:57:36.843Z,89.53
2022-11-30T06:00:05.855Z,89.93
2022-11-30T06:02:33.665Z,94.75
2022-11-30T06:05:02.560Z,94.70
2022-11-30T06:07:30.315Z,102.68
2022-11-30T06:09:59.652Z,94.05
2022-11-30T06:12:27.623Z,97.72
2022-11-30T06:14:55.583Z,94.05
2022-11-30T06:17:23.508Z,99.28
2022-11-30T06:19:51.720Z,91.00
2022-11-30T06:22:19.438Z,95.20
2022-11-30T06:24:47.571Z,94.75
2022-11-30T06:27:16.851Z,90.88
2022-11-30T06:29:44.792Z,80.97
2022-11-30T06:32:12.480Z,92.65
2022-11-30T06:34:40.532Z,91.85
2022-11-30T06:37:08.244Z,83.22
2022-11-30T06:40:04.972Z,86.18
2022-11-30T06:42:25.410Z,87.68
2022-11-30T06:44:53.373Z,86.60
2022-11-30T06:47:21.093Z,85.70
2022-11-30T06:49:49.352Z,93.90
2022-11-30T06:52:17.188Z,79.20
2022-11-30T06:54:45.383Z,86.65
2022-11-30T06:57:13.496Z,81.93
2022-11-30T06:59:43.404Z,78.25
2022-11-30T07:02:17.411Z,98.20
2022-11-30T07:04:47.368Z,88.60
2022-11-30T07:07:15.709Z,89.00
2022-11-30T07:09:43.945Z,94.93
2022-11-30T07:12:12.517Z,88.95
2022-11-30T07:14:40.696Z,89.40
2022-11-30T07:17:09.723Z,85.72
2022-11-30T07:19:37.824Z,98.97
2022-11-30T07:22:05.725Z,91.18
2022-11-30T07:24:51.394Z,91.45
2022-11-30T07:27:19.433Z,89.28
2022-11-30T07:29:48.829Z,82.82
2022-11-30T07:32:18.140Z,90.85
2022-11-30T07:34:47.496Z,81.80
2022-11-30T07:37:15.568Z,74.55
2022-11-30T07:39:43.674Z,86.05
2022-11-30T07:42:11.547Z,89.65
2022-11-30T07:44:39.726Z,83.15
2022-11-30T07:47:07.459Z,86.82
2022-11-30T07:49:37.108Z,84.97
2022-11-30T07:52:05.447Z,77.20
2022-11-30T07:54:33.517Z,79.15
2022-11-30T07:57:01.496Z,84.22
2022-11-30T07:59:29.465Z,79.00
2022-11-30T08:01:57.286Z,70.90
2022-11-30T08:04:25.597Z,75.70
2022-11-30T08:06:55.680Z,82.20
2022-11-30T08:09:23.783Z,77.95
2022-11-30T08:11:51.587Z,72.32
2022-11-30T08:14:19.658Z,77.07
2022-11-30T08:16:48.904Z,76.28
2022-11-30T08:19:17.108Z,77.45
2022-11-30T08:21:44.805Z,82.15
2022-11-30T08:24:14.641Z,79.15
2022-11-30T08:26:43.245Z,75.35
2022-11-30T08:29:11.801Z,85.45
2022-11-30T08:31:40.287Z,79.70
2022-11-30T08:34:11.145Z,84.18
2022-11-30T08:36:39.963Z,92.82
2022-11-30T08:39:09.787Z,80.05
2022-11-30T08:41:39.673Z,83.72
2022-11-30T08:44:07.923Z,86.93
2022-11-30T08:49:25.278Z,77.20
2022-11-30T08:54:46.077Z,81.60
2022-11-30T08:57:16.914Z,81.65
2022-11-30T08:59:45.320Z,78.18
2022-11-30T09:02:17.233Z,83.78
2022-11-30T09:04:45.413Z,79.53
2022-11-30T09:07:13.487Z,79.07
2022-11-30T09:09:41.675Z,79.05
2022-11-30T09:12:09.486Z,76.13
2022-11-30T09:14:38.968Z,82.35
2022-11-30T09:17:06.676Z,75.25
2022-11-30T09:19:34.830Z,73.93
2022-11-30T09:22:02.792Z,70.07
2022-11-30T09:24:30.961Z,78.50
2022-11-30T09:26:58.656Z,78.50
2022-11-30T09:29:26.975Z,77.97
2022-11-30T09:31:56.030Z,77.97
2022-11-30T09:34:24.060Z,73.60
2022-11-30T09:36:51.865Z,68.10
2022-11-30T09:39:20.173Z,72.55
2022-11-30T09:42:03.517Z,72.45
2022-11-30T09:44:39.775Z,73.80
2022-11-30T09:47:27.743Z,72.82
2022-11-30T09:50:04.422Z,69.40
2022-11-30T09:52:36.618Z,72.40
2022-11-30T09:55:10.229Z,75.78
2022-11-30T09:57:45.177Z,76.18
2022-11-30T10:00:16.984Z,81.85
2022-11-30T10:02:47.116Z,84.07
2022-11-30T10:05:17.556Z,78.63
2022-11-30T10:08:02.216Z,91.40
2022-11-30T10:10:40.356Z,94.32
2022-11-30T10:13:27.786Z,83.03
2022-11-30T10:16:08.646Z,68.60
2022-11-30T10:18:50.453Z,70.00
2022-11-30T10:21:33.742Z,74.28
2022-11-30T10:24:16.128Z,68.80
2022-11-30T10:26:52.855Z,75.43
2022-11-30T10:29:26.211Z,73.45
2022-11-30T10:31:58.860Z,72.60
2022-11-30T10:34:33.557Z,69.40
2022-11-30T10:37:05.663Z,66.88
2022-11-30T10:39:40.141Z,76.95
2022-11-30T10:42:14.444Z,80.07
2022-11-30T10:44:47.158Z,79.45
2022-11-30T10:47:20.206Z,75.13
2022-11-30T10:49:50.823Z,66.95
2022-11-30T10:52:23.787Z,68.85
2022-11-30T10:54:59.111Z,62.35
2022-11-30T10:57:32.252Z,68.45
2022-11-30T11:00:03.453Z,76.25
2022-11-30T11:02:39.742Z,63.42
2022-11-30T11:05:21.061Z,63.28
2022-11-30T11:07:59.846Z,52.17
2022-11-30T11:10:35.422Z,60.95
2022-11-30T11:13:05.047Z,62.70
2022-11-30T11:15:34.774Z,58.85
2022-11-30T11:18:27.659Z,64.20
2022-11-30T11:23:38.466Z,61.92
2022-11-30T11:26:07.609Z,58.23
2022-11-30T11:28:37.111Z,59.60
2022-11-30T11:31:18.555Z,56.90
2022-11-30T11:33:54.938Z,61.10
2022-11-30T11:36:29.329Z,55.80
2022-11-30T11:38:58.560Z,63.47
2022-11-30T11:41:29.273Z,60.83
2022-11-30T11:44:02.253Z,64.32
2022-11-30T11:46:31.883Z,66.68
2022-11-30T11:49:03.396Z,61.80
2022-11-30T11:51:34.906Z,62.00
2022-11-30T11:54:11.744Z,64.70
2022-11-30T11:56:39.613Z,66.70
2022-11-30T11:59:18.418Z,62.10
2022-11-30T12:01:54.884Z,69.28
2022-11-30T12:04:45.472Z,70.55
2022-11-30T12:07:26.243Z,71.70
2022-11-30T12:10:43.671Z,76.65
2022-11-30T12:13:02.743Z,79.68
2022-11-30T12:15:37.819Z,85.53
2022-11-30T12:18:23.797Z,69.05
2022-11-30T12:20:57.563Z,74.93
2022-11-30T12:23:40.963Z,79.30
2022-11-30T12:26:17.803Z,73.80
2022-11-30T12:29:06.996Z,70.28
2022-11-30T12:31:44.783Z,82.72
2022-11-30T12:34:20.976Z,76.55
2022-11-30T12:36:56.008Z,71.93
2022-11-30T12:39:34.488Z,78.85
2022-11-30T12:42:09.061Z,83.30
2022-11-30T12:44:51.142Z,78.80
2022-11-30T12:47:31.268Z,83.78
2022-11-30T12:50:17.450Z,81.20
2022-11-30T12:52:53.918Z,85.97
2022-11-30T12:55:32.856Z,83.22
2022-11-30T12:58:08.924Z,76.65
2022-11-30T13:01:00.013Z,79.63
2022-11-30T13:03:53.131Z,88.88
2022-11-30T13:06:25.520Z,76.45
2022-11-30T13:08:59.896Z,107.22
2022-11-30T13:11:34.904Z,90.35
2022-11-30T13:14:05.150Z,89.78
2022-11-30T13:16:35.724Z,77.63
2022-11-30T13:19:16.683Z,122.63
2022-11-30T13:21:54.061Z,90.30
2022-11-30T13:24:28.763Z,71.72
2022-11-30T13:27:02.623Z,72.97
2022-11-30T13:29:59.294Z,74.68
2022-11-30T13:32:56.868Z,78.63
2022-11-30T13:35:42.248Z,74.68
2022-11-30T13:38:37.033Z,74.63
2022-11-30T13:41:08.460Z,79.07
2022-11-30T13:46:26.023Z,81.03
2022-11-30T13:49:19.555Z,76.10
2022-11-30T13:52:01.430Z,78.40
2022-11-30T13:54:40.318Z,74.15
2022-11-30T13:57:19.934Z,70.30
2022-11-30T13:59:50.668Z,71.60
2022-11-30T14:02:58.170Z,81.90
2022-11-30T14:05:41.131Z,83.05
2022-11-30T14:10:56.167Z,75.00
2022-11-30T14:13:42.257Z,78.93
2022-11-30T14:16:23.893Z,81.82
2022-11-30T14:18:52.731Z,80.57
2022-11-30T14:21:26.663Z,82.72
2022-11-30T14:24:02.103Z,82.03
2022-11-30T14:26:35.609Z,89.90
2022-11-30T14:29:10.447Z,89.43
2022-11-30T14:31:44.045Z,93.03
2022-11-30T14:34:17.661Z,91.47
2022-11-30T14:36:50.204Z,95.72
2022-11-30T14:39:26.562Z,90.30
2022-11-30T14:41:55.054Z,95.22
2022-11-30T14:44:22.743Z,105.22
2022-11-30T14:46:50.927Z,91.22
2022-11-30T14:49:20.774Z,92.53
2022-11-30T14:51:53.004Z,87.88
2022-11-30T14:54:37.551Z,95.93
2022-11-30T14:57:13.859Z,90.10
2022-11-30T14:59:47.795Z,93.50
2022-11-30T15:02:22.171Z,85.07
2022-11-30T15:04:54.097Z,94.90
2022-11-30T15:07:24.930Z,93.78
2022-11-30T15:10:01.139Z,87.80
2022-11-30T15:12:29.204Z,95.38
2022-11-30T15:15:13.921Z,91.80
2022-11-30T15:17:54.998Z,83.68
2022-11-30T15:20:44.469Z,94.38
2022-11-30T15:23:15.944Z,101.85
2022-11-30T15:25:47.754Z,90.40
2022-11-30T15:28:20.528Z,94.97
2022-11-30T15:30:53.053Z,93.43
2022-11-30T15:33:23.248Z,97.82
2022-11-30T15:36:18.716Z,89.07
2022-11-30T15:38:51.080Z,76.90
2022-11-30T15:41:21.316Z,92.22
2022-11-30T15:43:53.123Z,87.30
2022-11-30T15:46:34.310Z,81.20
2022-11-30T15:49:08.174Z,99.10
2022-11-30T15:55:10.134Z,106.43
2022-11-30T15:58:02.183Z,102.13
2022-11-30T16:00:30.555Z,100.30
2022-11-30T16:03:08.660Z,102.25
2022-11-30T17:01:52.854Z,116.97
2022-11-30T17:04:23.111Z,122.68
2022-11-30T17:06:55.851Z,130.18
2022-11-30T17:09:29.811Z,126.35
2022-11-30T17:11:57.728Z,113.18
2022-11-30T17:14:25.917Z,127.53
2022-11-30T17:16:55.433Z,128.95
2022-11-30T17:19:23.576Z,114.50
2022-11-30T17:21:51.272Z,120.97
2022-11-30T17:24:19.456Z,129.52
2022-11-30T17:26:47.408Z,111.97
2022-11-30T17:29:15.368Z,128.75
2022-11-30T17:31:43.566Z,124.10
2022-11-30T17:34:13.853Z,128.52
2022-11-30T17:36:41.548Z,98.40
2022-11-30T17:39:10.106Z,100.28
2022-11-30T17:41:37.910Z,93.63
2022-11-30T17:44:05.974Z,91.63
2022-11-30T17:46:33.996Z,86.00
2022-11-30T17:49:01.991Z,108.78
2022-11-30T17:51:31.275Z,121.53
2022-11-30T17:53:59.768Z,114.15
2022-11-30T17:56:27.503Z,100.63
2022-11-30T17:58:55.526Z,103.00
2022-11-30T18:01:25.194Z,94.35
2022-11-30T18:03:54.265Z,104.53
2022-11-30T18:06:22.028Z,93.05
2022-11-30T18:08:51.916Z,92.63
2022-11-30T18:11:21.530Z,81.95
2022-11-30T18:13:49.917Z,87.15
2022-11-30T18:16:20.673Z,92.75
2022-11-30T18:18:49.121Z,100.03
2022-11-30T18:21:19.047Z,114.55
2022-11-30T18:23:47.910Z,101.38
2022-11-30T18:26:19.245Z,107.03
2022-11-30T18:28:47.660Z,104.22
2022-11-30T18:31:15.676Z,102.60
2022-11-30T18:33:43.812Z,104.22
2022-11-30T18:36:11.768Z,107.25
2022-11-30T18:38:41.493Z,93.70
2022-11-30T18:41:09.306Z,107.05
2022-11-30T18:43:40.030Z,110.15
2022-11-30T18:46:10.372Z,116.72
2022-11-30T18:48:39.923Z,107.35
2022-11-30T18:51:12.487Z,113.97
2022-11-30T18:53:41.016Z,112.43
2022-11-30T18:56:10.635Z,114.78
2022-11-30T18:58:40.368Z,119.78
2022-11-30T19:01:10.089Z,129.15
2022-11-30T19:03:38.655Z,118.40
2022-11-30T19:06:08.454Z,133.73
2022-11-30T19:08:37.448Z,124.28
2022-11-30T19:11:07.627Z,136.32
2022-11-30T19:13:35.886Z,136.18
2022-11-30T19:16:07.031Z,134.98
2022-11-30T19:18:36.128Z,115.60
2022-11-30T19:21:08.494Z,109.88
2022-11-30T19:23:37.248Z,101.97
2022-11-30T19:26:06.232Z,100.50
2022-11-30T19:28:36.113Z,92.07
2022-11-30T19:31:10.375Z,92.97
2022-11-30T19:33:39.996Z,91.68
2022-11-30T19:36:09.871Z,95.40
2022-11-30T19:38:38.056Z,81.80
2022-11-30T19:41:07.101Z,84.60
2022-11-30T19:43:35.575Z,84.57
2022-11-30T19:46:10.591Z,78.30
2022-11-30T19:48:39.725Z,78.85
2022-11-30T19:51:13.240Z,77.18
2022-11-30T19:53:44.783Z,77.03
2022-11-30T19:56:14.414Z,86.70
2022-11-30T19:58:44.298Z,77.32
2022-11-30T20:01:14.758Z,82.85
2022-11-30T20:03:44.275Z,85.13
2022-11-30T20:06:12.183Z,88.93
2022-11-30T20:08:40.818Z,88.30
2022-11-30T20:11:09.235Z,84.43
2022-11-30T20:13:37.697Z,97.05
2022-11-30T20:16:09.753Z,94.68
2022-11-30T20:21:16.128Z,87.53
2022-11-30T20:23:45.707Z,97.05
2022-11-30T20:26:15.770Z,83.68
2022-11-30T20:28:44.752Z,93.57
2022-11-30T20:31:15.190Z,87.65
2022-11-30T20:33:45.204Z,92.10
2022-11-30T20:36:14.308Z,83.55
2022-11-30T20:38:43.093Z,82.15
2022-11-30T20:41:12.724Z,80.97
2022-11-30T20:43:41.285Z,76.28
2022-11-30T20:46:17.074Z,69.57
2022-11-30T20:48:47.727Z,52.53
2022-11-30T20:51:33.620Z,56.75
2022-11-30T20:54:05.483Z,54.47
2022-11-30T20:56:35.154Z,61.92
2022-11-30T20:59:05.817Z,60.95
2022-11-30T21:01:34.460Z,55.50
2022-11-30T21:04:04.053Z,62.78
2022-11-30T21:06:32.085Z,59.97
2022-11-30T21:09:00.735Z,62.88
2022-11-30T21:11:29.871Z,57.35
2022-11-30T21:13:59.063Z,68.50
2022-11-30T21:16:29.507Z,68.30
2022-11-30T21:18:59.816Z,63.47
2022-11-30T21:21:31.099Z,66.97
2022-11-30T21:24:00.921Z,62.28
2022-11-30T21:26:31.199Z,63.92
2022-11-30T21:29:02.108Z,64.38
2022-11-30T21:31:31.066Z,60.35
2022-11-30T21:33:59.252Z,72.38
2022-11-30T21:36:29.329Z,62.33
2022-11-30T21:39:05.008Z,66.40
2022-11-30T21:41:34.684Z,77.00
2022-11-30T21:44:03.120Z,64.22
2022-11-30T21:46:31.220Z,68.50
2022-11-30T21:48:59.708Z,71.25
2022-11-30T21:51:31.651Z,73.97
2022-11-30T21:54:01.920Z,72.68
2022-11-30T21:56:31.605Z,71.20
2022-11-30T21:59:00.597Z,73.93
2022-11-30T22:01:30.510Z,68.70
2022-11-30T22:04:00.004Z,64.35
2022-11-30T22:06:31.336Z,68.35
2022-11-30T22:09:03.194Z,73.38
2022-11-30T22:11:31.837Z,68.03
2022-11-30T22:13:59.948Z,67.60
2022-11-30T22:16:35.285Z,76.78
2022-11-30T22:19:05.546Z,82.78
2022-11-30T22:21:35.772Z,74.40
2022-11-30T22:24:06.043Z,82.38
2022-11-30T22:26:36.875Z,80.57
2022-11-30T22:29:08.390Z,84.88
2022-11-30T22:31:38.758Z,75.90
2022-11-30T22:34:07.860Z,80.50
2022-11-30T22:36:39.227Z,73.00
2022-11-30T22:39:10.191Z,76.63
2022-11-30T22:41:39.843Z,75.05
2022-11-30T22:44:07.971Z,77.55
2022-11-30T22:46:37.714Z,84.20
2022-11-30T22:49:09.211Z,78.43
2022-11-30T22:51:38.820Z,60.70
2022-11-30T22:54:07.124Z,76.72
2022-11-30T22:56:37.153Z,75.20
2022-11-30T22:59:06.573Z,78.45
2022-11-30T23:01:35.892Z,81.47
2022-11-30T23:04:06.382Z,83.53
2022-11-30T23:06:35.199Z,78.97
2022-11-30T23:09:05.596Z,94.60
2022-11-30T23:11:33.587Z,82.72
2022-11-30T23:14:07.973Z,85.95
2022-11-30T23:16:36.084Z,86.47
2022-11-30T23:19:05.158Z,90.20
2022-11-30T23:21:40.290Z,80.85
2022-11-30T23:24:14.422Z,83.00
2022-11-30T23:26:42.902Z,85.18
2022-11-30T23:29:14.279Z,81.47
2022-11-30T23:31:43.993Z,87.07
2022-11-30T23:34:14.335Z,86.60
2022-11-30T23:36:42.358Z,100.35
2022-11-30T23:39:13.799Z,112.22
2022-11-30T23:41:42.143Z,137.32
2022-11-30T23:44:11.287Z,139.77
2022-11-30T23:46:40.092Z,121.82
2022-11-30T23:49:08.911Z,135.05
2022-11-30T23:51:36.852Z,104.18
2022-11-30T23:54:05.535Z,99.28
2022-11-30T23:56:35.011Z,91.45
2022-11-30T23:59:03.181Z,92.78
